sensor_id;sensor_type;location;lat;lon;timestamp;temperature;humidity
75161;DHT22;63738;50.096;8.716;2022-11-03T00:01:57;11.50;76.60
75161;DHT22;63738;50.096;8.716;2022-11-03T00:04:22;11.50;76.60
75161;DHT22;63738;50.096;8.716;2022-11-03T00:06:50;11.50;76.80
75161;DHT22;63738;50.096;8.716;2022-11-03T00:09:18;11.60;76.50
75161;DHT22;63738;50.096;8.716;2022-11-03T00:11:46;11.80;76.30
75161;DHT22;63738;50.096;8.716;2022-11-03T00:14:12;11.90;75.90
75161;DHT22;63738;50.096;8.716;2022-11-03T00:16:39;11.80;75.80
75161;DHT22;63738;50.096;8.716;2022-11-03T00:19:05;11.80;75.70
75161;DHT22;63738;50.096;8.716;2022-11-03T00:21:31;11.90;75.60
75161;DHT22;63738;50.096;8.716;2022-11-03T00:23:57;11.60;75.80
75161;DHT22;63738;50.096;8.716;2022-11-03T00:26:24;11.70;76.00
75161;DHT22;63738;50.096;8.716;2022-11-03T00:28:52;11.80;76.00
75161;DHT22;63738;50.096;8.716;2022-11-03T00:31:20;11.80;76.00
75161;DHT22;63738;50.096;8.716;2022-11-03T00:33:47;12.00;76.00
75161;DHT22;63738;50.096;8.716;2022-11-03T00:36:14;11.90;76.10
75161;DHT22;63738;50.096;8.716;2022-11-03T00:38:40;11.60;76.40
75161;DHT22;63738;50.096;8.716;2022-11-03T00:41:06;11.40;76.90
75161;DHT22;63738;50.096;8.716;2022-11-03T00:43:33;11.30;76.90
75161;DHT22;63738;50.096;8.716;2022-11-03T00:46:00;11.30;77.10
75161;DHT22;63738;50.096;8.716;2022-11-03T00:48:26;11.40;77.00
75161;DHT22;63738;50.096;8.716;2022-11-03T00:53:53;11.40;76.90
75161;DHT22;63738;50.096;8.716;2022-11-03T00:58:49;11.40;77.00
75161;DHT22;63738;50.096;8.716;2022-11-03T01:01:20;11.30;77.10
75161;DHT22;63738;50.096;8.716;2022-11-03T01:03:48;11.30;77.20
75161;DHT22;63738;50.096;8.716;2022-11-03T01:06:35;11.30;77.10
75161;DHT22;63738;50.096;8.716;2022-11-03T01:17:10;11.10;77.30
75161;DHT22;63738;50.096;8.716;2022-11-03T01:19:36;11.00;77.50
75161;DHT22;63738;50.096;8.716;2022-11-03T01:22:02;11.00;77.30
75161;DHT22;63738;50.096;8.716;2022-11-03T01:24:27;11.00;77.20
75161;DHT22;63738;50.096;8.716;2022-11-03T01:26:53;11.00;77.10
75161;DHT22;63738;50.096;8.716;2022-11-03T01:29:19;11.10;77.10
75161;DHT22;63738;50.096;8.716;2022-11-03T01:31:44;11.10;76.80
75161;DHT22;63738;50.096;8.716;2022-11-03T01:34:17;11.10;76.80
75161;DHT22;63738;50.096;8.716;2022-11-03T01:36:43;11.00;77.00
75161;DHT22;63738;50.096;8.716;2022-11-03T01:39:13;10.90;77.00
75161;DHT22;63738;50.096;8.716;2022-11-03T01:41:40;10.80;77.00
75161;DHT22;63738;50.096;8.716;2022-11-03T01:46:33;10.80;77.40
75161;DHT22;63738;50.096;8.716;2022-11-03T01:49:04;10.90;77.20
75161;DHT22;63738;50.096;8.716;2022-11-03T01:51:32;10.90;77.00
75161;DHT22;63738;50.096;8.716;2022-11-03T01:54:02;10.90;77.00
75161;DHT22;63738;50.096;8.716;2022-11-03T01:56:30;10.70;77.00
75161;DHT22;63738;50.096;8.716;2022-11-03T01:58:56;10.60;77.20
75161;DHT22;63738;50.096;8.716;2022-11-03T02:01:22;10.60;77.30
75161;DHT22;63738;50.096;8.716;2022-11-03T02:03:54;10.60;77.10
75161;DHT22;63738;50.096;8.716;2022-11-03T02:06:23;10.60;77.30
75161;DHT22;63738;50.096;8.716;2022-11-03T02:08:55;10.70;77.40
75161;DHT22;63738;50.096;8.716;2022-11-03T02:11:23;10.60;77.50
75161;DHT22;63738;50.096;8.716;2022-11-03T02:14:13;10.70;77.30
75161;DHT22;63738;50.096;8.716;2022-11-03T02:16:41;10.70;77.40
75161;DHT22;63738;50.096;8.716;2022-11-03T02:24:51;10.70;77.20
75161;DHT22;63738;50.096;8.716;2022-11-03T02:27:18;10.50;77.20
75161;DHT22;63738;50.096;8.716;2022-11-03T02:29:44;10.40;77.30
75161;DHT22;63738;50.096;8.716;2022-11-03T02:32:24;10.40;77.30
75161;DHT22;63738;50.096;8.716;2022-11-03T02:35:16;10.40;77.40
75161;DHT22;63738;50.096;8.716;2022-11-03T02:37:47;10.40;77.70
75161;DHT22;63738;50.096;8.716;2022-11-03T02:40:17;10.30;77.70
75161;DHT22;63738;50.096;8.716;2022-11-03T02:42:47;10.30;77.60
75161;DHT22;63738;50.096;8.716;2022-11-03T02:45:18;10.30;77.70
75161;DHT22;63738;50.096;8.716;2022-11-03T02:47:44;10.40;77.50
75161;DHT22;63738;50.096;8.716;2022-11-03T02:50:11;10.40;77.40
75161;DHT22;63738;50.096;8.716;2022-11-03T02:52:40;10.40;77.40
75161;DHT22;63738;50.096;8.716;2022-11-03T02:57:36;10.20;78.00
75161;DHT22;63738;50.096;8.716;2022-11-03T03:00:05;10.20;78.20
75161;DHT22;63738;50.096;8.716;2022-11-03T03:02:39;10.30;78.10
75161;DHT22;63738;50.096;8.716;2022-11-03T03:05:08;10.30;77.90
75161;DHT22;63738;50.096;8.716;2022-11-03T03:07:37;10.30;77.80
75161;DHT22;63738;50.096;8.716;2022-11-03T03:10:11;10.20;77.90
75161;DHT22;63738;50.096;8.716;2022-11-03T03:12:50;10.10;77.90
75161;DHT22;63738;50.096;8.716;2022-11-03T03:15:18;10.20;77.90
75161;DHT22;63738;50.096;8.716;2022-11-03T03:17:53;10.10;77.80
75161;DHT22;63738;50.096;8.716;2022-11-03T03:20:44;10.10;77.50
75161;DHT22;63738;50.096;8.716;2022-11-03T03:23:22;10.10;77.50
75161;DHT22;63738;50.096;8.716;2022-11-03T03:26:12;10.10;77.50
75161;DHT22;63738;50.096;8.716;2022-11-03T03:28:56;10.00;77.80
75161;DHT22;63738;50.096;8.716;2022-11-03T03:31:25;9.90;78.20
75161;DHT22;63738;50.096;8.716;2022-11-03T03:33:52;10.00;78.10
75161;DHT22;63738;50.096;8.716;2022-11-03T03:36:19;9.90;78.20
75161;DHT22;63738;50.096;8.716;2022-11-03T03:38:53;9.90;78.20
75161;DHT22;63738;50.096;8.716;2022-11-03T03:41:21;9.80;78.20
75161;DHT22;63738;50.096;8.716;2022-11-03T03:43:58;9.80;78.30
75161;DHT22;63738;50.096;8.716;2022-11-03T03:46:28;9.90;78.50
75161;DHT22;63738;50.096;8.716;2022-11-03T03:48:56;10.00;78.30
75161;DHT22;63738;50.096;8.716;2022-11-03T03:51:23;10.00;78.20
75161;DHT22;63738;50.096;8.716;2022-11-03T03:53:50;10.00;78.00
75161;DHT22;63738;50.096;8.716;2022-11-03T03:56:25;10.00;78.00
75161;DHT22;63738;50.096;8.716;2022-11-03T04:05:15;9.90;78.20
75161;DHT22;63738;50.096;8.716;2022-11-03T04:07:40;9.90;78.30
75161;DHT22;63738;50.096;8.716;2022-11-03T04:10:12;10.10;77.90
75161;DHT22;63738;50.096;8.716;2022-11-03T04:12:41;10.10;77.50
75161;DHT22;63738;50.096;8.716;2022-11-03T04:15:26;10.00;78.20
75161;DHT22;63738;50.096;8.716;2022-11-03T04:18:11;9.90;78.20
75161;DHT22;63738;50.096;8.716;2022-11-03T04:20:55;9.90;78.10
75161;DHT22;63738;50.096;8.716;2022-11-03T04:23:39;9.90;77.80
75161;DHT22;63738;50.096;8.716;2022-11-03T04:26:11;9.70;78.10
75161;DHT22;63738;50.096;8.716;2022-11-03T04:28:37;9.70;78.20
75161;DHT22;63738;50.096;8.716;2022-11-03T04:31:08;9.80;78.10
75161;DHT22;63738;50.096;8.716;2022-11-03T04:33:34;9.80;78.10
75161;DHT22;63738;50.096;8.716;2022-11-03T04:36:00;9.90;78.00
75161;DHT22;63738;50.096;8.716;2022-11-03T04:38:26;9.90;77.80
75161;DHT22;63738;50.096;8.716;2022-11-03T04:40:55;9.80;77.90
75161;DHT22;63738;50.096;8.716;2022-11-03T04:43:23;9.70;77.80
75161;DHT22;63738;50.096;8.716;2022-11-03T04:45:53;9.80;78.00
75161;DHT22;63738;50.096;8.716;2022-11-03T04:48:22;9.70;78.10
75161;DHT22;63738;50.096;8.716;2022-11-03T04:50:51;9.60;78.10
75161;DHT22;63738;50.096;8.716;2022-11-03T04:53:19;9.50;78.50
75161;DHT22;63738;50.096;8.716;2022-11-03T04:55:47;9.50;78.70
75161;DHT22;63738;50.096;8.716;2022-11-03T04:58:21;9.50;78.80
75161;DHT22;63738;50.096;8.716;2022-11-03T05:00:56;9.50;78.80
75161;DHT22;63738;50.096;8.716;2022-11-03T05:03:27;9.50;78.60
75161;DHT22;63738;50.096;8.716;2022-11-03T05:05:54;9.40;78.60
75161;DHT22;63738;50.096;8.716;2022-11-03T05:08:20;9.40;78.70
75161;DHT22;63738;50.096;8.716;2022-11-03T05:10:47;9.40;78.60
75161;DHT22;63738;50.096;8.716;2022-11-03T05:13:21;9.40;78.70
75161;DHT22;63738;50.096;8.716;2022-11-03T05:15:51;9.50;78.50
75161;DHT22;63738;50.096;8.716;2022-11-03T05:18:30;9.40;78.60
75161;DHT22;63738;50.096;8.716;2022-11-03T05:21:02;9.40;78.50
75161;DHT22;63738;50.096;8.716;2022-11-03T05:23:31;9.30;78.50
75161;DHT22;63738;50.096;8.716;2022-11-03T05:26:02;9.50;78.40
75161;DHT22;63738;50.096;8.716;2022-11-03T05:28:32;9.60;78.20
75161;DHT22;63738;50.096;8.716;2022-11-03T05:30:59;9.60;78.00
75161;DHT22;63738;50.096;8.716;2022-11-03T05:33:33;9.50;78.20
75161;DHT22;63738;50.096;8.716;2022-11-03T05:36:04;9.40;78.40
75161;DHT22;63738;50.096;8.716;2022-11-03T05:38:31;9.30;78.60
75161;DHT22;63738;50.096;8.716;2022-11-03T05:40:58;9.40;78.50
75161;DHT22;63738;50.096;8.716;2022-11-03T05:43:25;9.30;78.30
75161;DHT22;63738;50.096;8.716;2022-11-03T05:45:55;9.20;78.60
75161;DHT22;63738;50.096;8.716;2022-11-03T05:48:29;9.20;78.50
75161;DHT22;63738;50.096;8.716;2022-11-03T05:50:55;9.20;78.70
75161;DHT22;63738;50.096;8.716;2022-11-03T05:53:35;9.30;78.70
75161;DHT22;63738;50.096;8.716;2022-11-03T05:56:04;9.40;78.90
75161;DHT22;63738;50.096;8.716;2022-11-03T05:58:37;9.50;78.70
75161;DHT22;63738;50.096;8.716;2022-11-03T06:01:12;9.40;78.50
75161;DHT22;63738;50.096;8.716;2022-11-03T06:03:40;9.30;78.70
75161;DHT22;63738;50.096;8.716;2022-11-03T06:06:21;9.40;78.60
75161;DHT22;63738;50.096;8.716;2022-11-03T06:08:47;9.50;78.50
75161;DHT22;63738;50.096;8.716;2022-11-03T06:11:24;9.50;78.50
75161;DHT22;63738;50.096;8.716;2022-11-03T06:13:50;9.40;78.50
75161;DHT22;63738;50.096;8.716;2022-11-03T06:19:00;9.40;78.40
75161;DHT22;63738;50.096;8.716;2022-11-03T06:21:27;9.40;78.40
75161;DHT22;63738;50.096;8.716;2022-11-03T06:23:54;9.30;78.50
75161;DHT22;63738;50.096;8.716;2022-11-03T06:26:22;9.40;78.80
75161;DHT22;63738;50.096;8.716;2022-11-03T06:28:49;9.40;78.90
75161;DHT22;63738;50.096;8.716;2022-11-03T06:31:23;9.30;78.90
75161;DHT22;63738;50.096;8.716;2022-11-03T06:33:51;9.40;79.00
75161;DHT22;63738;50.096;8.716;2022-11-03T06:36:19;9.40;78.90
75161;DHT22;63738;50.096;8.716;2022-11-03T06:39:09;9.40;78.90
75161;DHT22;63738;50.096;8.716;2022-11-03T06:41:36;9.20;79.30
75161;DHT22;63738;50.096;8.716;2022-11-03T06:44:19;9.30;79.10
75161;DHT22;63738;50.096;8.716;2022-11-03T06:46:46;9.30;79.10
75161;DHT22;63738;50.096;8.716;2022-11-03T06:49:41;9.50;79.10
75161;DHT22;63738;50.096;8.716;2022-11-03T06:57:36;9.80;78.40
75161;DHT22;63738;50.096;8.716;2022-11-03T07:00:36;9.80;78.40
75161;DHT22;63738;50.096;8.716;2022-11-03T07:03:09;9.70;78.50
75161;DHT22;63738;50.096;8.716;2022-11-03T07:05:38;9.60;78.80
75161;DHT22;63738;50.096;8.716;2022-11-03T07:08:25;9.70;78.80
75161;DHT22;63738;50.096;8.716;2022-11-03T07:11:17;9.60;79.00
75161;DHT22;63738;50.096;8.716;2022-11-03T07:13:43;9.70;79.00
75161;DHT22;63738;50.096;8.716;2022-11-03T07:16:12;9.80;78.90
75161;DHT22;63738;50.096;8.716;2022-11-03T07:18:40;10.00;78.70
75161;DHT22;63738;50.096;8.716;2022-11-03T07:23:59;9.80;79.20
75161;DHT22;63738;50.096;8.716;2022-11-03T07:26:26;9.90;79.30
75161;DHT22;63738;50.096;8.716;2022-11-03T07:28:53;10.10;79.10
75161;DHT22;63738;50.096;8.716;2022-11-03T07:31:21;10.20;79.20
75161;DHT22;63738;50.096;8.716;2022-11-03T07:33:48;10.30;79.30
75161;DHT22;63738;50.096;8.716;2022-11-03T07:36:19;10.40;79.30
75161;DHT22;63738;50.096;8.716;2022-11-03T07:38:48;10.50;79.20
75161;DHT22;63738;50.096;8.716;2022-11-03T07:41:20;10.60;79.20
75161;DHT22;63738;50.096;8.716;2022-11-03T07:44:07;10.80;79.20
75161;DHT22;63738;50.096;8.716;2022-11-03T07:46:37;10.90;79.00
75161;DHT22;63738;50.096;8.716;2022-11-03T07:49:07;11.00;79.00
75161;DHT22;63738;50.096;8.716;2022-11-03T07:51:36;10.90;79.10
75161;DHT22;63738;50.096;8.716;2022-11-03T07:54:08;11.00;78.80
75161;DHT22;63738;50.096;8.716;2022-11-03T07:56:40;11.10;78.90
75161;DHT22;63738;50.096;8.716;2022-11-03T08:01:39;11.70;78.60
75161;DHT22;63738;50.096;8.716;2022-11-03T08:04:09;12.00;78.10
75161;DHT22;63738;50.096;8.716;2022-11-03T08:06:36;12.30;77.60
75161;DHT22;63738;50.096;8.716;2022-11-03T08:09:02;12.40;77.30
75161;DHT22;63738;50.096;8.716;2022-11-03T08:11:28;12.50;77.10
75161;DHT22;63738;50.096;8.716;2022-11-03T08:13:54;12.70;76.40
75161;DHT22;63738;50.096;8.716;2022-11-03T08:16:19;12.90;75.70
75161;DHT22;63738;50.096;8.716;2022-11-03T08:18:45;13.00;75.40
75161;DHT22;63738;50.096;8.716;2022-11-03T08:21:11;13.10;74.80
75161;DHT22;63738;50.096;8.716;2022-11-03T08:23:37;13.20;74.20
75161;DHT22;63738;50.096;8.716;2022-11-03T08:26:03;13.50;73.80
75161;DHT22;63738;50.096;8.716;2022-11-03T08:28:29;13.60;73.60
75161;DHT22;63738;50.096;8.716;2022-11-03T08:30:55;13.70;73.10
75161;DHT22;63738;50.096;8.716;2022-11-03T08:33:26;13.80;72.90
75161;DHT22;63738;50.096;8.716;2022-11-03T08:35:52;14.10;72.10
75161;DHT22;63738;50.096;8.716;2022-11-03T08:38:17;14.20;71.80
75161;DHT22;63738;50.096;8.716;2022-11-03T08:40:43;14.20;71.80
75161;DHT22;63738;50.096;8.716;2022-11-03T08:43:09;14.40;71.00
75161;DHT22;63738;50.096;8.716;2022-11-03T08:45:34;14.80;70.30
75161;DHT22;63738;50.096;8.716;2022-11-03T08:48:00;15.10;69.30
75161;DHT22;63738;50.096;8.716;2022-11-03T08:50:25;15.60;66.80
75161;DHT22;63738;50.096;8.716;2022-11-03T08:52:51;16.00;66.50
75161;DHT22;63738;50.096;8.716;2022-11-03T08:55:17;16.20;66.50
75161;DHT22;63738;50.096;8.716;2022-11-03T08:57:42;16.50;65.80
75161;DHT22;63738;50.096;8.716;2022-11-03T09:00:08;16.90;64.80
75161;DHT22;63738;50.096;8.716;2022-11-03T09:02:34;17.30;64.10
75161;DHT22;63738;50.096;8.716;2022-11-03T09:05:00;17.70;63.20
75161;DHT22;63738;50.096;8.716;2022-11-03T09:07:25;18.10;61.10
75161;DHT22;63738;50.096;8.716;2022-11-03T09:09:51;18.40;60.30
75161;DHT22;63738;50.096;8.716;2022-11-03T09:12:17;18.80;59.40
75161;DHT22;63738;50.096;8.716;2022-11-03T09:14:42;19.20;59.00
75161;DHT22;63738;50.096;8.716;2022-11-03T09:17:08;19.30;58.80
75161;DHT22;63738;50.096;8.716;2022-11-03T09:19:33;19.50;58.30
75161;DHT22;63738;50.096;8.716;2022-11-03T09:21:59;19.40;58.30
75161;DHT22;63738;50.096;8.716;2022-11-03T09:24:25;19.40;58.20
75161;DHT22;63738;50.096;8.716;2022-11-03T09:26:50;18.80;59.30
75161;DHT22;63738;50.096;8.716;2022-11-03T09:29:16;18.80;60.00
75161;DHT22;63738;50.096;8.716;2022-11-03T09:31:42;18.10;61.90
75161;DHT22;63738;50.096;8.716;2022-11-03T09:34:07;17.80;62.40
75161;DHT22;63738;50.096;8.716;2022-11-03T09:36:33;17.60;63.00
75161;DHT22;63738;50.096;8.716;2022-11-03T09:38:58;17.70;63.30
75161;DHT22;63738;50.096;8.716;2022-11-03T09:41:24;17.80;63.30
75161;DHT22;63738;50.096;8.716;2022-11-03T09:43:50;18.00;62.80
75161;DHT22;63738;50.096;8.716;2022-11-03T09:46:16;17.80;63.10
75161;DHT22;63738;50.096;8.716;2022-11-03T09:48:42;18.20;61.60
75161;DHT22;63738;50.096;8.716;2022-11-03T09:51:08;18.40;61.40
75161;DHT22;63738;50.096;8.716;2022-11-03T09:53:34;18.40;61.70
75161;DHT22;63738;50.096;8.716;2022-11-03T09:56:00;18.10;62.20
75161;DHT22;63738;50.096;8.716;2022-11-03T09:58:25;17.80;64.40
75161;DHT22;63738;50.096;8.716;2022-11-03T10:00:51;17.60;64.30
75161;DHT22;63738;50.096;8.716;2022-11-03T10:03:17;17.40;64.40
75161;DHT22;63738;50.096;8.716;2022-11-03T10:05:45;17.30;64.70
75161;DHT22;63738;50.096;8.716;2022-11-03T10:08:35;16.80;65.90
75161;DHT22;63738;50.096;8.716;2022-11-03T10:11:00;16.60;66.70
75161;DHT22;63738;50.096;8.716;2022-11-03T10:13:29;16.50;66.90
75161;DHT22;63738;50.096;8.716;2022-11-03T10:15:59;16.60;66.90
75161;DHT22;63738;50.096;8.716;2022-11-03T10:18:26;16.60;67.70
75161;DHT22;63738;50.096;8.716;2022-11-03T10:20:53;16.60;67.10
75161;DHT22;63738;50.096;8.716;2022-11-03T10:23:18;16.80;67.20
75161;DHT22;63738;50.096;8.716;2022-11-03T10:25:44;17.10;67.20
75161;DHT22;63738;50.096;8.716;2022-11-03T10:28:22;17.50;67.10
75161;DHT22;63738;50.096;8.716;2022-11-03T10:30:58;18.10;64.90
75161;DHT22;63738;50.096;8.716;2022-11-03T10:33:26;18.20;63.30
75161;DHT22;63738;50.096;8.716;2022-11-03T10:35:54;17.80;65.50
75161;DHT22;63738;50.096;8.716;2022-11-03T10:38:25;17.50;67.30
75161;DHT22;63738;50.096;8.716;2022-11-03T10:41:12;17.50;66.60
75161;DHT22;63738;50.096;8.716;2022-11-03T10:44:27;17.30;66.70
75161;DHT22;63738;50.096;8.716;2022-11-03T10:46:28;17.20;66.90
75161;DHT22;63738;50.096;8.716;2022-11-03T10:49:01;17.20;67.00
75161;DHT22;63738;50.096;8.716;2022-11-03T10:51:27;17.30;67.90
75161;DHT22;63738;50.096;8.716;2022-11-03T10:53:54;17.70;66.10
75161;DHT22;63738;50.096;8.716;2022-11-03T10:56:19;17.40;65.90
75161;DHT22;63738;50.096;8.716;2022-11-03T10:58:45;17.10;66.80
75161;DHT22;63738;50.096;8.716;2022-11-03T11:01:11;17.00;67.40
75161;DHT22;63738;50.096;8.716;2022-11-03T11:03:38;16.90;68.50
75161;DHT22;63738;50.096;8.716;2022-11-03T11:08:44;16.80;67.90
75161;DHT22;63738;50.096;8.716;2022-11-03T11:11:12;16.60;70.00
75161;DHT22;63738;50.096;8.716;2022-11-03T11:13:39;16.50;70.00
75161;DHT22;63738;50.096;8.716;2022-11-03T11:16:45;16.30;71.80
75161;DHT22;63738;50.096;8.716;2022-11-03T11:19:11;16.10;69.90
75161;DHT22;63738;50.096;8.716;2022-11-03T11:24:02;16.00;71.50
75161;DHT22;63738;50.096;8.716;2022-11-03T11:26:29;15.90;72.50
75161;DHT22;63738;50.096;8.716;2022-11-03T11:31:37;15.90;72.00
75161;DHT22;63738;50.096;8.716;2022-11-03T11:36:40;15.90;71.50
75161;DHT22;63738;50.096;8.716;2022-11-03T11:52:56;15.70;72.20
75161;DHT22;63738;50.096;8.716;2022-11-03T11:58:14;15.50;72.20
75161;DHT22;63738;50.096;8.716;2022-11-03T12:00:57;15.50;72.40
75161;DHT22;63738;50.096;8.716;2022-11-03T12:03:42;15.40;74.00
75161;DHT22;63738;50.096;8.716;2022-11-03T12:06:11;15.50;72.70
75161;DHT22;63738;50.096;8.716;2022-11-03T12:08:37;15.50;72.40
75161;DHT22;63738;50.096;8.716;2022-11-03T12:11:04;15.40;73.30
75161;DHT22;63738;50.096;8.716;2022-11-03T12:13:42;15.40;73.00
75161;DHT22;63738;50.096;8.716;2022-11-03T12:16:24;15.40;72.90
75161;DHT22;63738;50.096;8.716;2022-11-03T12:18:50;15.40;73.00
75161;DHT22;63738;50.096;8.716;2022-11-03T12:26:52;15.40;73.70
75161;DHT22;63738;50.096;8.716;2022-11-03T12:29:18;15.40;72.40
75161;DHT22;63738;50.096;8.716;2022-11-03T12:31:45;15.40;73.40
75161;DHT22;63738;50.096;8.716;2022-11-03T12:34:10;15.40;73.70
75161;DHT22;63738;50.096;8.716;2022-11-03T12:36:36;15.40;74.30
75161;DHT22;63738;50.096;8.716;2022-11-03T12:39:02;15.40;73.70
75161;DHT22;63738;50.096;8.716;2022-11-03T12:41:27;15.50;72.80
75161;DHT22;63738;50.096;8.716;2022-11-03T12:43:53;15.40;73.90
75161;DHT22;63738;50.096;8.716;2022-11-03T12:46:20;15.50;73.10
75161;DHT22;63738;50.096;8.716;2022-11-03T12:48:47;15.50;73.20
75161;DHT22;63738;50.096;8.716;2022-11-03T12:51:23;15.40;74.20
75161;DHT22;63738;50.096;8.716;2022-11-03T12:53:49;15.40;74.50
75161;DHT22;63738;50.096;8.716;2022-11-03T12:56:16;15.50;73.60
75161;DHT22;63738;50.096;8.716;2022-11-03T12:58:42;15.50;73.20
75161;DHT22;63738;50.096;8.716;2022-11-03T13:01:08;15.50;73.90
75161;DHT22;63738;50.096;8.716;2022-11-03T13:03:34;15.40;73.80
75161;DHT22;63738;50.096;8.716;2022-11-03T13:06:01;15.40;74.10
75161;DHT22;63738;50.096;8.716;2022-11-03T13:08:32;15.50;73.80
75161;DHT22;63738;50.096;8.716;2022-11-03T13:10:58;15.50;74.30
75161;DHT22;63738;50.096;8.716;2022-11-03T13:13:24;15.40;74.40
75161;DHT22;63738;50.096;8.716;2022-11-03T13:15:50;15.40;74.70
75161;DHT22;63738;50.096;8.716;2022-11-03T13:18:17;15.40;74.00
75161;DHT22;63738;50.096;8.716;2022-11-03T13:20:44;15.50;74.20
75161;DHT22;63738;50.096;8.716;2022-11-03T13:23:09;15.50;74.10
75161;DHT22;63738;50.096;8.716;2022-11-03T13:25:35;15.40;74.20
75161;DHT22;63738;50.096;8.716;2022-11-03T13:28:01;15.40;74.40
75161;DHT22;63738;50.096;8.716;2022-11-03T13:30:28;15.30;75.50
75161;DHT22;63738;50.096;8.716;2022-11-03T13:32:54;15.40;74.50
75161;DHT22;63738;50.096;8.716;2022-11-03T13:35:20;15.40;74.60
75161;DHT22;63738;50.096;8.716;2022-11-03T13:37:46;15.40;75.00
75161;DHT22;63738;50.096;8.716;2022-11-03T13:40:13;15.40;74.60
75161;DHT22;63738;50.096;8.716;2022-11-03T13:42:39;15.40;74.80
75161;DHT22;63738;50.096;8.716;2022-11-03T13:45:05;15.40;74.60
75161;DHT22;63738;50.096;8.716;2022-11-03T13:47:32;15.30;76.90
75161;DHT22;63738;50.096;8.716;2022-11-03T13:49:57;15.30;76.00
75161;DHT22;63738;50.096;8.716;2022-11-03T13:52:27;15.30;76.20
75161;DHT22;63738;50.096;8.716;2022-11-03T13:54:53;15.30;77.30
75161;DHT22;63738;50.096;8.716;2022-11-03T13:57:20;15.30;76.90
75161;DHT22;63738;50.096;8.716;2022-11-03T13:59:46;15.30;76.00
75161;DHT22;63738;50.096;8.716;2022-11-03T14:02:11;15.20;76.60
75161;DHT22;63738;50.096;8.716;2022-11-03T14:04:38;15.20;77.30
75161;DHT22;63738;50.096;8.716;2022-11-03T14:07:07;15.20;77.00
75161;DHT22;63738;50.096;8.716;2022-11-03T14:09:33;15.20;77.50
75161;DHT22;63738;50.096;8.716;2022-11-03T14:11:58;15.20;78.30
75161;DHT22;63738;50.096;8.716;2022-11-03T14:14:43;15.20;77.50
75161;DHT22;63738;50.096;8.716;2022-11-03T14:17:08;15.20;76.90
75161;DHT22;63738;50.096;8.716;2022-11-03T14:19:34;15.20;76.80
75161;DHT22;63738;50.096;8.716;2022-11-03T14:22:00;15.20;76.80
75161;DHT22;63738;50.096;8.716;2022-11-03T14:24:25;15.20;76.60
75161;DHT22;63738;50.096;8.716;2022-11-03T14:26:51;15.20;76.50
75161;DHT22;63738;50.096;8.716;2022-11-03T14:29:17;15.30;76.20
75161;DHT22;63738;50.096;8.716;2022-11-03T14:31:42;15.30;76.00
75161;DHT22;63738;50.096;8.716;2022-11-03T14:34:08;15.30;75.80
75161;DHT22;63738;50.096;8.716;2022-11-03T14:36:34;15.30;75.90
75161;DHT22;63738;50.096;8.716;2022-11-03T14:38:59;15.30;75.80
75161;DHT22;63738;50.096;8.716;2022-11-03T14:41:25;15.30;76.10
75161;DHT22;63738;50.096;8.716;2022-11-03T14:44:09;15.20;76.30
75161;DHT22;63738;50.096;8.716;2022-11-03T14:46:35;15.30;76.20
75161;DHT22;63738;50.096;8.716;2022-11-03T14:49:00;15.20;76.40
75161;DHT22;63738;50.096;8.716;2022-11-03T14:51:27;15.20;76.50
75161;DHT22;63738;50.096;8.716;2022-11-03T14:53:53;15.20;76.30
75161;DHT22;63738;50.096;8.716;2022-11-03T14:56:18;15.20;76.40
75161;DHT22;63738;50.096;8.716;2022-11-03T14:58:44;15.10;76.40
75161;DHT22;63738;50.096;8.716;2022-11-03T15:01:10;15.10;76.50
75161;DHT22;63738;50.096;8.716;2022-11-03T15:03:36;15.10;76.30
75161;DHT22;63738;50.096;8.716;2022-11-03T15:06:01;15.00;76.50
75161;DHT22;63738;50.096;8.716;2022-11-03T15:08:27;15.00;76.60
75161;DHT22;63738;50.096;8.716;2022-11-03T15:10:54;15.00;76.60
75161;DHT22;63738;50.096;8.716;2022-11-03T15:13:19;15.00;76.50
75161;DHT22;63738;50.096;8.716;2022-11-03T15:15:45;15.00;76.70
75161;DHT22;63738;50.096;8.716;2022-11-03T15:18:10;14.90;76.80
75161;DHT22;63738;50.096;8.716;2022-11-03T15:20:36;14.90;76.90
75161;DHT22;63738;50.096;8.716;2022-11-03T15:23:03;14.90;76.90
75161;DHT22;63738;50.096;8.716;2022-11-03T15:25:29;14.90;76.90
75161;DHT22;63738;50.096;8.716;2022-11-03T15:27:55;14.90;76.80
75161;DHT22;63738;50.096;8.716;2022-11-03T15:30:21;14.90;76.80
75161;DHT22;63738;50.096;8.716;2022-11-03T15:32:46;14.90;76.90
75161;DHT22;63738;50.096;8.716;2022-11-03T15:35:12;14.80;76.90
75161;DHT22;63738;50.096;8.716;2022-11-03T15:37:38;14.90;76.90
75161;DHT22;63738;50.096;8.716;2022-11-03T15:40:05;14.80;76.90
75161;DHT22;63738;50.096;8.716;2022-11-03T15:42:30;14.90;76.90
75161;DHT22;63738;50.096;8.716;2022-11-03T15:44:56;14.80;77.00
75161;DHT22;63738;50.096;8.716;2022-11-03T15:47:22;14.80;77.00
75161;DHT22;63738;50.096;8.716;2022-11-03T15:49:47;14.70;77.00
75161;DHT22;63738;50.096;8.716;2022-11-03T15:52:13;14.70;76.90
75161;DHT22;63738;50.096;8.716;2022-11-03T15:54:38;14.70;77.30
75161;DHT22;63738;50.096;8.716;2022-11-03T15:57:04;14.70;77.30
75161;DHT22;63738;50.096;8.716;2022-11-03T15:59:30;14.70;77.10
75161;DHT22;63738;50.096;8.716;2022-11-03T16:01:55;14.80;77.10
75161;DHT22;63738;50.096;8.716;2022-11-03T16:04:21;14.60;77.20
75161;DHT22;63738;50.096;8.716;2022-11-03T16:06:46;14.70;77.30
75161;DHT22;63738;50.096;8.716;2022-11-03T16:09:12;14.60;77.40
75161;DHT22;63738;50.096;8.716;2022-11-03T16:11:37;14.60;77.60
75161;DHT22;63738;50.096;8.716;2022-11-03T16:14:03;14.60;77.60
75161;DHT22;63738;50.096;8.716;2022-11-03T16:16:29;14.60;77.60
75161;DHT22;63738;50.096;8.716;2022-11-03T16:18:54;14.60;77.40
75161;DHT22;63738;50.096;8.716;2022-11-03T16:21:20;14.60;77.40
75161;DHT22;63738;50.096;8.716;2022-11-03T16:23:45;14.60;77.30
75161;DHT22;63738;50.096;8.716;2022-11-03T16:26:11;14.60;77.60
75161;DHT22;63738;50.096;8.716;2022-11-03T16:28:37;14.60;77.60
75161;DHT22;63738;50.096;8.716;2022-11-03T16:31:02;14.60;77.60
75161;DHT22;63738;50.096;8.716;2022-11-03T16:33:28;14.60;77.60
75161;DHT22;63738;50.096;8.716;2022-11-03T16:35:53;14.60;77.40
75161;DHT22;63738;50.096;8.716;2022-11-03T16:38:19;14.50;77.70
75161;DHT22;63738;50.096;8.716;2022-11-03T16:40:45;14.60;77.90
75161;DHT22;63738;50.096;8.716;2022-11-03T16:43:10;14.60;77.80
75161;DHT22;63738;50.096;8.716;2022-11-03T16:45:36;14.60;77.90
75161;DHT22;63738;50.096;8.716;2022-11-03T16:48:02;14.50;78.00
75161;DHT22;63738;50.096;8.716;2022-11-03T16:50:28;14.50;78.20
75161;DHT22;63738;50.096;8.716;2022-11-03T16:52:54;14.50;78.20
75161;DHT22;63738;50.096;8.716;2022-11-03T16:55:29;14.50;78.50
75161;DHT22;63738;50.096;8.716;2022-11-03T16:57:54;14.50;78.80
75161;DHT22;63738;50.096;8.716;2022-11-03T17:00:20;14.50;79.20
75161;DHT22;63738;50.096;8.716;2022-11-03T17:02:46;14.50;79.30